sensor_id;sensor_type;location;lat;lon;timestamp;temperature;humidity
49253;DHT22;35103;47.952;-1.502;2022-11-21T00:01:11;8.50;81.00
49253;DHT22;35103;47.952;-1.502;2022-11-21T00:03:37;8.60;81.10
49253;DHT22;35103;47.952;-1.502;2022-11-21T00:06:03;8.60;81.10
49253;DHT22;35103;47.952;-1.502;2022-11-21T00:08:29;8.60;81.00
49253;DHT22;35103;47.952;-1.502;2022-11-21T00:10:58;8.70;81.00
49253;DHT22;35103;47.952;-1.502;2022-11-21T00:13:24;8.60;81.00
49253;DHT22;35103;47.952;-1.502;2022-11-21T00:15:49;8.70;81.00
49253;DHT22;35103;47.952;-1.502;2022-11-21T00:18:15;8.70;81.00
49253;DHT22;35103;47.952;-1.502;2022-11-21T00:20:41;8.70;81.10
49253;DHT22;35103;47.952;-1.502;2022-11-21T00:23:08;8.70;81.20
49253;DHT22;35103;47.952;-1.502;2022-11-21T00:25:34;8.70;81.20
49253;DHT22;35103;47.952;-1.502;2022-11-21T00:27:59;8.70;81.20
49253;DHT22;35103;47.952;-1.502;2022-11-21T00:30:25;8.80;81.20
49253;DHT22;35103;47.952;-1.502;2022-11-21T00:32:51;8.80;81.20
49253;DHT22;35103;47.952;-1.502;2022-11-21T00:35:17;8.80;81.20
49253;DHT22;35103;47.952;-1.502;2022-11-21T00:37:42;8.80;81.30
49253;DHT22;35103;47.952;-1.502;2022-11-21T00:40:08;8.80;81.20
49253;DHT22;35103;47.952;-1.502;2022-11-21T00:42:34;8.80;81.20
49253;DHT22;35103;47.952;-1.502;2022-11-21T00:45:00;8.80;81.40
49253;DHT22;35103;47.952;-1.502;2022-11-21T00:47:25;8.80;81.30
49253;DHT22;35103;47.952;-1.502;2022-11-21T00:49:51;8.80;81.50
49253;DHT22;35103;47.952;-1.502;2022-11-21T00:52:17;8.80;81.40
49253;DHT22;35103;47.952;-1.502;2022-11-21T00:54:42;8.80;81.40
49253;DHT22;35103;47.952;-1.502;2022-11-21T00:57:08;8.80;81.50
49253;DHT22;35103;47.952;-1.502;2022-11-21T00:59:34;8.90;81.70
49253;DHT22;35103;47.952;-1.502;2022-11-21T01:01:59;8.90;81.70
49253;DHT22;35103;47.952;-1.502;2022-11-21T01:04:27;9.00;81.70
49253;DHT22;35103;47.952;-1.502;2022-11-21T01:06:54;9.00;81.60
49253;DHT22;35103;47.952;-1.502;2022-11-21T01:09:20;9.00;81.60
49253;DHT22;35103;47.952;-1.502;2022-11-21T01:11:45;9.00;81.80
49253;DHT22;35103;47.952;-1.502;2022-11-21T01:14:11;9.00;81.80
49253;DHT22;35103;47.952;-1.502;2022-11-21T01:16:36;9.00;81.80
49253;DHT22;35103;47.952;-1.502;2022-11-21T01:19:02;9.00;81.80
49253;DHT22;35103;47.952;-1.502;2022-11-21T01:21:29;9.00;81.80
49253;DHT22;35103;47.952;-1.502;2022-11-21T01:23:57;9.00;82.00
49253;DHT22;35103;47.952;-1.502;2022-11-21T01:26:26;9.00;82.10
49253;DHT22;35103;47.952;-1.502;2022-11-21T01:28:52;9.00;81.90
49253;DHT22;35103;47.952;-1.502;2022-11-21T01:31:25;9.00;82.10
49253;DHT22;35103;47.952;-1.502;2022-11-21T01:33:52;8.90;81.90
49253;DHT22;35103;47.952;-1.502;2022-11-21T01:36:22;8.90;81.90
49253;DHT22;35103;47.952;-1.502;2022-11-21T01:38:50;8.90;82.00
49253;DHT22;35103;47.952;-1.502;2022-11-21T01:41:22;8.90;81.90
49253;DHT22;35103;47.952;-1.502;2022-11-21T01:43:48;8.90;82.00
49253;DHT22;35103;47.952;-1.502;2022-11-21T01:46:16;8.90;82.00
49253;DHT22;35103;47.952;-1.502;2022-11-21T01:56:47;8.90;82.10
49253;DHT22;35103;47.952;-1.502;2022-11-21T01:59:18;8.90;82.10
49253;DHT22;35103;47.952;-1.502;2022-11-21T02:01:46;8.90;82.20
49253;DHT22;35103;47.952;-1.502;2022-11-21T02:04:14;8.90;82.30
49253;DHT22;35103;47.952;-1.502;2022-11-21T02:06:40;9.00;82.50
49253;DHT22;35103;47.952;-1.502;2022-11-21T02:09:06;8.90;82.60
49253;DHT22;35103;47.952;-1.502;2022-11-21T02:11:36;9.00;82.50
49253;DHT22;35103;47.952;-1.502;2022-11-21T02:14:04;9.10;82.40
49253;DHT22;35103;47.952;-1.502;2022-11-21T02:16:30;9.00;82.90
49253;DHT22;35103;47.952;-1.502;2022-11-21T02:18:55;9.10;82.70
49253;DHT22;35103;47.952;-1.502;2022-11-21T02:21:32;9.10;82.70
49253;DHT22;35103;47.952;-1.502;2022-11-21T02:25:05;9.20;82.80
49253;DHT22;35103;47.952;-1.502;2022-11-21T02:27:05;9.10;82.70
49253;DHT22;35103;47.952;-1.502;2022-11-21T02:29:31;9.20;82.60
49253;DHT22;35103;47.952;-1.502;2022-11-21T02:32:02;9.20;82.70
49253;DHT22;35103;47.952;-1.502;2022-11-21T02:34:28;9.20;82.80
49253;DHT22;35103;47.952;-1.502;2022-11-21T02:36:54;9.20;82.80
49253;DHT22;35103;47.952;-1.502;2022-11-21T02:39:26;9.20;82.60
49253;DHT22;35103;47.952;-1.502;2022-11-21T02:45:13;9.20;82.60
49253;DHT22;35103;47.952;-1.502;2022-11-21T02:47:39;9.20;82.60
49253;DHT22;35103;47.952;-1.502;2022-11-21T02:52:37;9.30;82.70
49253;DHT22;35103;47.952;-1.502;2022-11-21T02:55:03;9.20;82.80
49253;DHT22;35103;47.952;-1.502;2022-11-21T02:57:29;9.30;82.70
49253;DHT22;35103;47.952;-1.502;2022-11-21T02:59:54;9.30;82.70
49253;DHT22;35103;47.952;-1.502;2022-11-21T03:02:20;9.30;82.70
49253;DHT22;35103;47.952;-1.502;2022-11-21T03:04:45;9.30;82.90
49253;DHT22;35103;47.952;-1.502;2022-11-21T03:07:11;9.30;82.80
49253;DHT22;35103;47.952;-1.502;2022-11-21T03:09:37;9.30;82.80
49253;DHT22;35103;47.952;-1.502;2022-11-21T03:12:09;9.30;82.80
49253;DHT22;35103;47.952;-1.502;2022-11-21T03:14:35;9.30;82.90
49253;DHT22;35103;47.952;-1.502;2022-11-21T03:17:01;9.30;83.00
49253;DHT22;35103;47.952;-1.502;2022-11-21T03:19:27;9.30;83.10
49253;DHT22;35103;47.952;-1.502;2022-11-21T03:21:52;9.30;83.10
49253;DHT22;35103;47.952;-1.502;2022-11-21T03:24:18;9.30;83.10
49253;DHT22;35103;47.952;-1.502;2022-11-21T03:26:44;9.30;83.10
49253;DHT22;35103;47.952;-1.502;2022-11-21T03:29:09;9.30;83.10
49253;DHT22;35103;47.952;-1.502;2022-11-21T03:31:35;9.30;83.30
49253;DHT22;35103;47.952;-1.502;2022-11-21T03:34:01;9.30;83.30
49253;DHT22;35103;47.952;-1.502;2022-11-21T03:36:26;9.30;83.60
49253;DHT22;35103;47.952;-1.502;2022-11-21T03:38:54;9.30;83.50
49253;DHT22;35103;47.952;-1.502;2022-11-21T03:41:20;9.30;83.50
49253;DHT22;35103;47.952;-1.502;2022-11-21T03:43:45;9.30;83.60
49253;DHT22;35103;47.952;-1.502;2022-11-21T03:46:11;9.30;83.50
49253;DHT22;35103;47.952;-1.502;2022-11-21T03:48:36;9.40;83.40
49253;DHT22;35103;47.952;-1.502;2022-11-21T03:51:02;9.30;83.30
49253;DHT22;35103;47.952;-1.502;2022-11-21T03:53:27;9.40;83.40
49253;DHT22;35103;47.952;-1.502;2022-11-21T03:55:53;9.40;83.60
49253;DHT22;35103;47.952;-1.502;2022-11-21T03:58:18;9.40;84.00
49253;DHT22;35103;47.952;-1.502;2022-11-21T04:00:46;9.30;84.00
49253;DHT22;35103;47.952;-1.502;2022-11-21T04:03:12;9.30;83.70
49253;DHT22;35103;47.952;-1.502;2022-11-21T04:05:37;9.40;83.80
49253;DHT22;35103;47.952;-1.502;2022-11-21T04:08:03;9.40;83.80
49253;DHT22;35103;47.952;-1.502;2022-11-21T04:10:29;9.30;84.10
49253;DHT22;35103;47.952;-1.502;2022-11-21T04:12:54;9.40;84.10
49253;DHT22;35103;47.952;-1.502;2022-11-21T04:15:20;9.40;84.20
49253;DHT22;35103;47.952;-1.502;2022-11-21T04:17:45;9.30;84.50
49253;DHT22;35103;47.952;-1.502;2022-11-21T04:20:11;9.30;84.60
49253;DHT22;35103;47.952;-1.502;2022-11-21T04:22:37;9.40;84.40
49253;DHT22;35103;47.952;-1.502;2022-11-21T04:25:03;9.40;84.30
49253;DHT22;35103;47.952;-1.502;2022-11-21T04:27:28;9.40;84.50
49253;DHT22;35103;47.952;-1.502;2022-11-21T04:29:54;9.40;84.70
49253;DHT22;35103;47.952;-1.502;2022-11-21T04:32:19;9.40;84.50
49253;DHT22;35103;47.952;-1.502;2022-11-21T04:34:45;9.40;84.50
49253;DHT22;35103;47.952;-1.502;2022-11-21T04:37:11;9.50;84.60
49253;DHT22;35103;47.952;-1.502;2022-11-21T04:39:36;9.50;84.70
49253;DHT22;35103;47.952;-1.502;2022-11-21T04:42:02;9.50;84.40
49253;DHT22;35103;47.952;-1.502;2022-11-21T04:44:27;9.60;84.70
49253;DHT22;35103;47.952;-1.502;2022-11-21T04:46:53;9.60;84.60
49253;DHT22;35103;47.952;-1.502;2022-11-21T04:49:18;9.60;84.90
49253;DHT22;35103;47.952;-1.502;2022-11-21T04:51:44;9.70;84.70
49253;DHT22;35103;47.952;-1.502;2022-11-21T04:54:10;9.70;84.70
49253;DHT22;35103;47.952;-1.502;2022-11-21T04:56:36;9.80;84.70
49253;DHT22;35103;47.952;-1.502;2022-11-21T04:59:01;9.80;84.90
49253;DHT22;35103;47.952;-1.502;2022-11-21T05:01:27;9.80;84.90
49253;DHT22;35103;47.952;-1.502;2022-11-21T05:03:53;9.80;84.80
49253;DHT22;35103;47.952;-1.502;2022-11-21T05:06:18;9.80;84.90
49253;DHT22;35103;47.952;-1.502;2022-11-21T05:08:44;9.80;84.70
49253;DHT22;35103;47.952;-1.502;2022-11-21T05:11:09;9.90;84.80
49253;DHT22;35103;47.952;-1.502;2022-11-21T05:13:35;9.90;85.00
49253;DHT22;35103;47.952;-1.502;2022-11-21T05:16:00;10.00;85.00
49253;DHT22;35103;47.952;-1.502;2022-11-21T05:18:27;10.00;84.90
49253;DHT22;35103;47.952;-1.502;2022-11-21T05:20:52;10.10;84.90
49253;DHT22;35103;47.952;-1.502;2022-11-21T05:23:18;10.10;85.20
49253;DHT22;35103;47.952;-1.502;2022-11-21T05:25:43;10.10;85.20
49253;DHT22;35103;47.952;-1.502;2022-11-21T05:28:09;10.20;85.30
49253;DHT22;35103;47.952;-1.502;2022-11-21T05:30:34;10.20;85.20
49253;DHT22;35103;47.952;-1.502;2022-11-21T05:33:00;10.20;85.70
49253;DHT22;35103;47.952;-1.502;2022-11-21T05:35:26;10.20;85.40
49253;DHT22;35103;47.952;-1.502;2022-11-21T05:37:55;10.30;85.60
49253;DHT22;35103;47.952;-1.502;2022-11-21T05:40:22;10.30;85.70
49253;DHT22;35103;47.952;-1.502;2022-11-21T05:42:48;10.30;85.90
49253;DHT22;35103;47.952;-1.502;2022-11-21T05:45:13;10.30;85.80
49253;DHT22;35103;47.952;-1.502;2022-11-21T05:47:40;10.30;86.00
49253;DHT22;35103;47.952;-1.502;2022-11-21T05:50:06;10.30;86.20
49253;DHT22;35103;47.952;-1.502;2022-11-21T05:52:32;10.30;86.00
49253;DHT22;35103;47.952;-1.502;2022-11-21T05:54:57;10.40;86.10
49253;DHT22;35103;47.952;-1.502;2022-11-21T05:57:23;10.40;86.40
49253;DHT22;35103;47.952;-1.502;2022-11-21T05:59:49;10.40;86.20
49253;DHT22;35103;47.952;-1.502;2022-11-21T06:02:14;10.40;86.30
49253;DHT22;35103;47.952;-1.502;2022-11-21T06:04:40;10.40;86.10
49253;DHT22;35103;47.952;-1.502;2022-11-21T06:07:05;10.30;86.30
49253;DHT22;35103;47.952;-1.502;2022-11-21T06:09:31;10.30;86.30
49253;DHT22;35103;47.952;-1.502;2022-11-21T06:11:57;10.30;86.30
49253;DHT22;35103;47.952;-1.502;2022-11-21T06:14:22;10.20;86.50
49253;DHT22;35103;47.952;-1.502;2022-11-21T06:16:49;10.20;86.60
49253;DHT22;35103;47.952;-1.502;2022-11-21T06:19:14;10.10;86.40
49253;DHT22;35103;47.952;-1.502;2022-11-21T06:21:40;10.10;86.50
49253;DHT22;35103;47.952;-1.502;2022-11-21T06:24:06;10.10;86.40
49253;DHT22;35103;47.952;-1.502;2022-11-21T06:26:32;10.10;86.40
49253;DHT22;35103;47.952;-1.502;2022-11-21T06:28:57;10.00;86.30
49253;DHT22;35103;47.952;-1.502;2022-11-21T06:31:26;10.10;86.20
49253;DHT22;35103;47.952;-1.502;2022-11-21T06:33:56;10.00;86.30
49253;DHT22;35103;47.952;-1.502;2022-11-21T06:36:22;10.00;86.30
49253;DHT22;35103;47.952;-1.502;2022-11-21T06:38:48;10.00;86.30
49253;DHT22;35103;47.952;-1.502;2022-11-21T06:41:22;10.00;86.20
49253;DHT22;35103;47.952;-1.502;2022-11-21T06:43:48;9.90;86.20
49253;DHT22;35103;47.952;-1.502;2022-11-21T06:46:14;9.90;86.10
49253;DHT22;35103;47.952;-1.502;2022-11-21T06:48:41;9.90;86.00
49253;DHT22;35103;47.952;-1.502;2022-11-21T06:51:16;9.90;86.00
49253;DHT22;35103;47.952;-1.502;2022-11-21T06:53:41;9.90;86.00
49253;DHT22;35103;47.952;-1.502;2022-11-21T06:56:07;9.90;86.00
49253;DHT22;35103;47.952;-1.502;2022-11-21T06:58:33;9.90;85.80
49253;DHT22;35103;47.952;-1.502;2022-11-21T07:01:05;9.90;86.00
49253;DHT22;35103;47.952;-1.502;2022-11-21T07:03:31;10.00;85.90
49253;DHT22;35103;47.952;-1.502;2022-11-21T07:05:58;10.00;85.90
49253;DHT22;35103;47.952;-1.502;2022-11-21T07:08:24;10.00;85.90
49253;DHT22;35103;47.952;-1.502;2022-11-21T07:10:50;10.00;85.70
49253;DHT22;35103;47.952;-1.502;2022-11-21T07:13:16;10.00;85.80
49253;DHT22;35103;47.952;-1.502;2022-11-21T07:15:42;10.00;85.70
49253;DHT22;35103;47.952;-1.502;2022-11-21T07:18:08;10.00;85.70
49253;DHT22;35103;47.952;-1.502;2022-11-21T07:20:33;10.10;85.70
49253;DHT22;35103;47.952;-1.502;2022-11-21T07:22:59;10.10;85.70
49253;DHT22;35103;47.952;-1.502;2022-11-21T07:25:24;10.10;85.60
49253;DHT22;35103;47.952;-1.502;2022-11-21T07:27:50;10.10;85.60
49253;DHT22;35103;47.952;-1.502;2022-11-21T07:30:15;10.20;85.60
49253;DHT22;35103;47.952;-1.502;2022-11-21T07:32:41;10.10;85.70
49253;DHT22;35103;47.952;-1.502;2022-11-21T07:35:07;10.20;85.70
49253;DHT22;35103;47.952;-1.502;2022-11-21T07:37:39;10.10;85.70
49253;DHT22;35103;47.952;-1.502;2022-11-21T07:40:05;10.10;85.70
49253;DHT22;35103;47.952;-1.502;2022-11-21T07:42:32;10.00;85.70
49253;DHT22;35103;47.952;-1.502;2022-11-21T07:44:58;10.10;85.70
49253;DHT22;35103;47.952;-1.502;2022-11-21T07:47:23;10.00;85.60
49253;DHT22;35103;47.952;-1.502;2022-11-21T07:49:49;10.00;85.70
49253;DHT22;35103;47.952;-1.502;2022-11-21T07:52:14;10.00;85.70
49253;DHT22;35103;47.952;-1.502;2022-11-21T07:54:40;10.00;85.60
49253;DHT22;35103;47.952;-1.502;2022-11-21T07:57:06;10.00;85.50
49253;DHT22;35103;47.952;-1.502;2022-11-21T07:59:31;10.00;85.60
49253;DHT22;35103;47.952;-1.502;2022-11-21T08:01:57;10.00;85.50
49253;DHT22;35103;47.952;-1.502;2022-11-21T08:04:22;10.00;85.50
49253;DHT22;35103;47.952;-1.502;2022-11-21T08:06:48;10.00;85.60
49253;DHT22;35103;47.952;-1.502;2022-11-21T08:09:14;10.00;85.60
49253;DHT22;35103;47.952;-1.502;2022-11-21T08:11:39;9.90;85.70
49253;DHT22;35103;47.952;-1.502;2022-11-21T08:14:05;10.00;85.70
49253;DHT22;35103;47.952;-1.502;2022-11-21T08:16:30;9.90;85.70
49253;DHT22;35103;47.952;-1.502;2022-11-21T08:18:56;9.90;85.80
49253;DHT22;35103;47.952;-1.502;2022-11-21T08:21:21;9.90;86.00
49253;DHT22;35103;47.952;-1.502;2022-11-21T08:23:47;9.90;85.90
49253;DHT22;35103;47.952;-1.502;2022-11-21T08:26:13;9.90;86.00
49253;DHT22;35103;47.952;-1.502;2022-11-21T08:28:38;10.00;86.00
49253;DHT22;35103;47.952;-1.502;2022-11-21T08:31:05;10.00;86.10
49253;DHT22;35103;47.952;-1.502;2022-11-21T08:33:31;10.00;86.20
49253;DHT22;35103;47.952;-1.502;2022-11-21T08:35:57;9.90;86.20
49253;DHT22;35103;47.952;-1.502;2022-11-21T08:38:23;9.90;86.30
49253;DHT22;35103;47.952;-1.502;2022-11-21T08:40:48;10.00;86.60
49253;DHT22;35103;47.952;-1.502;2022-11-21T08:43:14;10.00;86.60
49253;DHT22;35103;47.952;-1.502;2022-11-21T08:45:40;10.00;86.80
49253;DHT22;35103;47.952;-1.502;2022-11-21T08:48:10;9.90;86.90
49253;DHT22;35103;47.952;-1.502;2022-11-21T08:50:35;9.90;87.10
49253;DHT22;35103;47.952;-1.502;2022-11-21T08:53:02;9.90;87.10
49253;DHT22;35103;47.952;-1.502;2022-11-21T08:55:28;10.00;87.20
49253;DHT22;35103;47.952;-1.502;2022-11-21T08:57:54;10.00;87.40
49253;DHT22;35103;47.952;-1.502;2022-11-21T09:00:20;10.00;87.50
49253;DHT22;35103;47.952;-1.502;2022-11-21T09:02:45;10.00;87.40
49253;DHT22;35103;47.952;-1.502;2022-11-21T09:05:11;10.00;87.50
49253;DHT22;35103;47.952;-1.502;2022-11-21T09:07:36;10.00;87.70
49253;DHT22;35103;47.952;-1.502;2022-11-21T09:10:02;10.00;87.80
49253;DHT22;35103;47.952;-1.502;2022-11-21T09:12:28;10.00;87.70
49253;DHT22;35103;47.952;-1.502;2022-11-21T09:14:54;10.10;87.80
49253;DHT22;35103;47.952;-1.502;2022-11-21T09:17:20;10.10;87.90
49253;DHT22;35103;47.952;-1.502;2022-11-21T09:19:46;10.10;87.80
49253;DHT22;35103;47.952;-1.502;2022-11-21T09:22:11;10.20;87.90
49253;DHT22;35103;47.952;-1.502;2022-11-21T09:24:37;10.20;87.90
49253;DHT22;35103;47.952;-1.502;2022-11-21T09:27:02;10.20;87.90
49253;DHT22;35103;47.952;-1.502;2022-11-21T09:29:28;10.30;87.90
49253;DHT22;35103;47.952;-1.502;2022-11-21T09:31:53;10.20;87.90
49253;DHT22;35103;47.952;-1.502;2022-11-21T09:34:19;10.30;87.90
49253;DHT22;35103;47.952;-1.502;2022-11-21T09:36:45;10.30;88.00
49253;DHT22;35103;47.952;-1.502;2022-11-21T09:39:10;10.30;87.90
49253;DHT22;35103;47.952;-1.502;2022-11-21T09:44:15;10.30;88.10
49253;DHT22;35103;47.952;-1.502;2022-11-21T09:46:48;10.30;88.10
49253;DHT22;35103;47.952;-1.502;2022-11-21T09:49:15;10.30;88.00
49253;DHT22;35103;47.952;-1.502;2022-11-21T09:51:43;10.30;88.00
49253;DHT22;35103;47.952;-1.502;2022-11-21T09:54:17;10.30;88.00
49253;DHT22;35103;47.952;-1.502;2022-11-21T09:56:45;10.40;88.10
49253;DHT22;35103;47.952;-1.502;2022-11-21T10:01:37;10.40;88.20
49253;DHT22;35103;47.952;-1.502;2022-11-21T10:04:03;10.40;88.20
49253;DHT22;35103;47.952;-1.502;2022-11-21T10:06:31;10.50;88.20
49253;DHT22;35103;47.952;-1.502;2022-11-21T10:23:33;10.60;88.10
49253;DHT22;35103;47.952;-1.502;2022-11-21T10:28:54;10.80;88.00
49253;DHT22;35103;47.952;-1.502;2022-11-21T10:31:21;10.80;88.00
49253;DHT22;35103;47.952;-1.502;2022-11-21T10:33:49;10.80;88.00
49253;DHT22;35103;47.952;-1.502;2022-11-21T10:36:30;10.90;88.10
49253;DHT22;35103;47.952;-1.502;2022-11-21T10:39:02;10.90;88.20
49253;DHT22;35103;47.952;-1.502;2022-11-21T10:41:39;11.00;88.10
49253;DHT22;35103;47.952;-1.502;2022-11-21T10:44:27;11.10;88.00
49253;DHT22;35103;47.952;-1.502;2022-11-21T10:46:57;11.20;88.20
49253;DHT22;35103;47.952;-1.502;2022-11-21T10:49:24;11.30;88.40
49253;DHT22;35103;47.952;-1.502;2022-11-21T10:51:59;11.30;88.60
49253;DHT22;35103;47.952;-1.502;2022-11-21T10:54:29;11.50;88.70
49253;DHT22;35103;47.952;-1.502;2022-11-21T10:57:01;11.60;88.60
49253;DHT22;35103;47.952;-1.502;2022-11-21T10:59:30;11.80;88.70
49253;DHT22;35103;47.952;-1.502;2022-11-21T11:01:59;11.80;88.70
49253;DHT22;35103;47.952;-1.502;2022-11-21T11:04:30;12.00;88.50
49253;DHT22;35103;47.952;-1.502;2022-11-21T11:06:56;12.20;88.30
49253;DHT22;35103;47.952;-1.502;2022-11-21T11:11:51;12.40;88.00
49253;DHT22;35103;47.952;-1.502;2022-11-21T11:14:30;12.60;87.30
49253;DHT22;35103;47.952;-1.502;2022-11-21T11:16:56;12.70;86.90
49253;DHT22;35103;47.952;-1.502;2022-11-21T11:19:29;12.80;86.10
49253;DHT22;35103;47.952;-1.502;2022-11-21T11:21:55;12.80;85.60
49253;DHT22;35103;47.952;-1.502;2022-11-21T11:24:23;12.80;85.10
49253;DHT22;35103;47.952;-1.502;2022-11-21T11:26:55;12.80;84.60
49253;DHT22;35103;47.952;-1.502;2022-11-21T11:29:27;12.80;84.80
49253;DHT22;35103;47.952;-1.502;2022-11-21T11:34:45;12.80;83.40
49253;DHT22;35103;47.952;-1.502;2022-11-21T11:37:20;12.80;83.10
49253;DHT22;35103;47.952;-1.502;2022-11-21T11:45:55;12.80;82.50
49253;DHT22;35103;47.952;-1.502;2022-11-21T11:48:23;12.80;82.90
49253;DHT22;35103;47.952;-1.502;2022-11-21T11:50:51;12.80;82.20
49253;DHT22;35103;47.952;-1.502;2022-11-21T11:53:25;12.80;82.10
49253;DHT22;35103;47.952;-1.502;2022-11-21T11:58:47;12.60;80.90
49253;DHT22;35103;47.952;-1.502;2022-11-21T12:01:42;12.50;80.80
49253;DHT22;35103;47.952;-1.502;2022-11-21T12:04:11;12.50;80.50
49253;DHT22;35103;47.952;-1.502;2022-11-21T12:09:29;12.30;78.80
49253;DHT22;35103;47.952;-1.502;2022-11-21T12:15:11;12.00;77.20
49253;DHT22;35103;47.952;-1.502;2022-11-21T12:20:25;11.80;78.10
49253;DHT22;35103;47.952;-1.502;2022-11-21T12:22:53;11.80;78.40
49253;DHT22;35103;47.952;-1.502;2022-11-21T12:25:32;11.80;77.20
49253;DHT22;35103;47.952;-1.502;2022-11-21T12:28:03;11.80;75.90
49253;DHT22;35103;47.952;-1.502;2022-11-21T12:30:54;12.00;77.40
49253;DHT22;35103;47.952;-1.502;2022-11-21T12:33:24;12.20;77.60
49253;DHT22;35103;47.952;-1.502;2022-11-21T12:36:18;12.30;76.20
49253;DHT22;35103;47.952;-1.502;2022-11-21T12:50:06;12.80;72.50
49253;DHT22;35103;47.952;-1.502;2022-11-21T12:52:49;12.80;71.80
49253;DHT22;35103;47.952;-1.502;2022-11-21T12:55:35;12.50;69.00
49253;DHT22;35103;47.952;-1.502;2022-11-21T12:58:10;12.40;70.90
49253;DHT22;35103;47.952;-1.502;2022-11-21T13:03:32;12.60;71.20
49253;DHT22;35103;47.952;-1.502;2022-11-21T13:06:00;12.80;71.10
49253;DHT22;35103;47.952;-1.502;2022-11-21T13:08:30;12.80;70.40
49253;DHT22;35103;47.952;-1.502;2022-11-21T13:13:44;13.20;70.30
49253;DHT22;35103;47.952;-1.502;2022-11-21T13:16:18;13.30;68.00
49253;DHT22;35103;47.952;-1.502;2022-11-21T13:18:48;13.40;68.70
49253;DHT22;35103;47.952;-1.502;2022-11-21T13:21:41;13.40;67.40
49253;DHT22;35103;47.952;-1.502;2022-11-21T13:24:08;13.40;64.40
49253;DHT22;35103;47.952;-1.502;2022-11-21T13:29:15;13.10;64.80
49253;DHT22;35103;47.952;-1.502;2022-11-21T13:31:40;13.00;63.80
49253;DHT22;35103;47.952;-1.502;2022-11-21T13:36:53;12.80;66.70
49253;DHT22;35103;47.952;-1.502;2022-11-21T13:39:29;12.70;67.40
49253;DHT22;35103;47.952;-1.502;2022-11-21T13:41:59;12.40;68.00
49253;DHT22;35103;47.952;-1.502;2022-11-21T14:00:31;11.40;72.00
49253;DHT22;35103;47.952;-1.502;2022-11-21T14:11:44;12.00;70.70
49253;DHT22;35103;47.952;-1.502;2022-11-21T14:14:44;12.20;71.50
49253;DHT22;35103;47.952;-1.502;2022-11-21T14:17:23;12.40;71.80
49253;DHT22;35103;47.952;-1.502;2022-11-21T14:19:55;12.60;70.70
49253;DHT22;35103;47.952;-1.502;2022-11-21T14:22:40;12.80;70.70
49253;DHT22;35103;47.952;-1.502;2022-11-21T14:25:08;13.20;71.10
49253;DHT22;35103;47.952;-1.502;2022-11-21T14:27:38;13.20;67.70
49253;DHT22;35103;47.952;-1.502;2022-11-21T14:30:23;13.00;66.30
49253;DHT22;35103;47.952;-1.502;2022-11-21T14:32:49;12.80;67.80
49253;DHT22;35103;47.952;-1.502;2022-11-21T14:35:22;13.00;67.10
49253;DHT22;35103;47.952;-1.502;2022-11-21T14:37:48;13.30;66.00
49253;DHT22;35103;47.952;-1.502;2022-11-21T14:40:22;13.50;66.40
49253;DHT22;35103;47.952;-1.502;2022-11-21T14:42:48;13.80;65.70
49253;DHT22;35103;47.952;-1.502;2022-11-21T14:45:19;14.20;64.00
49253;DHT22;35103;47.952;-1.502;2022-11-21T14:47:49;14.40;60.10
49253;DHT22;35103;47.952;-1.502;2022-11-21T14:50:24;14.60;58.50
49253;DHT22;35103;47.952;-1.502;2022-11-21T14:52:51;14.70;60.10
49253;DHT22;35103;47.952;-1.502;2022-11-21T14:55:31;14.50;57.00
49253;DHT22;35103;47.952;-1.502;2022-11-21T14:57:59;14.20;59.10
49253;DHT22;35103;47.952;-1.502;2022-11-21T15:00:28;14.00;58.30
49253;DHT22;35103;47.952;-1.502;2022-11-21T15:02:56;13.50;58.70
49253;DHT22;35103;47.952;-1.502;2022-11-21T15:05:31;13.20;59.20
49253;DHT22;35103;47.952;-1.502;2022-11-21T15:07:57;12.90;57.80
49253;DHT22;35103;47.952;-1.502;2022-11-21T15:10:29;12.80;58.80
49253;DHT22;35103;47.952;-1.502;2022-11-21T15:13:10;13.10;59.40
49253;DHT22;35103;47.952;-1.502;2022-11-21T15:15:43;13.30;58.00
49253;DHT22;35103;47.952;-1.502;2022-11-21T15:18:23;13.40;58.10
49253;DHT22;35103;47.952;-1.502;2022-11-21T15:20:52;13.60;58.30
49253;DHT22;35103;47.952;-1.502;2022-11-21T15:25:50;12.60;61.00
49253;DHT22;35103;47.952;-1.502;2022-11-21T15:28:17;12.30;62.10
49253;DHT22;35103;47.952;-1.502;2022-11-21T15:30:43;12.00;63.00
49253;DHT22;35103;47.952;-1.502;2022-11-21T15:33:14;11.70;63.00
49253;DHT22;35103;47.952;-1.502;2022-11-21T15:43:47;11.10;64.70
49253;DHT22;35103;47.952;-1.502;2022-11-21T15:46:30;11.10;65.10
49253;DHT22;35103;47.952;-1.502;2022-11-21T15:48:58;11.10;65.20
49253;DHT22;35103;47.952;-1.502;2022-11-21T15:51:29;11.00;65.50
49253;DHT22;35103;47.952;-1.502;2022-11-21T15:53:56;10.90;65.00
49253;DHT22;35103;47.952;-1.502;2022-11-21T15:56:21;10.80;64.90
49253;DHT22;35103;47.952;-1.502;2022-11-21T15:58:48;10.80;65.30
49253;DHT22;35103;47.952;-1.502;2022-11-21T16:01:18;10.60;65.60
49253;DHT22;35103;47.952;-1.502;2022-11-21T16:03:45;10.50;65.90
49253;DHT22;35103;47.952;-1.502;2022-11-21T16:06:12;10.50;66.10
49253;DHT22;35103;47.952;-1.502;2022-11-21T16:08:38;10.50;66.30
49253;DHT22;35103;47.952;-1.502;2022-11-21T16:11:03;10.40;66.40
49253;DHT22;35103;47.952;-1.502;2022-11-21T16:13:29;10.40;66.60
49253;DHT22;35103;47.952;-1.502;2022-11-21T16:15:54;10.40;66.70
49253;DHT22;35103;47.952;-1.502;2022-11-21T16:18:20;10.40;67.00
49253;DHT22;35103;47.952;-1.502;2022-11-21T16:20:46;10.40;67.00
49253;DHT22;35103;47.952;-1.502;2022-11-21T16:23:11;10.40;67.30
49253;DHT22;35103;47.952;-1.502;2022-11-21T16:25:37;10.40;67.80
49253;DHT22;35103;47.952;-1.502;2022-11-21T16:28:14;10.40;68.20
49253;DHT22;35103;47.952;-1.502;2022-11-21T16:30:39;10.30;68.10
49253;DHT22;35103;47.952;-1.502;2022-11-21T16:33:05;10.30;68.20
49253;DHT22;35103;47.952;-1.502;2022-11-21T16:35:30;10.20;68.20
49253;DHT22;35103;47.952;-1.502;2022-11-21T16:37:56;10.10;68.10
49253;DHT22;35103;47.952;-1.502;2022-11-21T16:40:21;10.00;68.20
49253;DHT22;35103;47.952;-1.502;2022-11-21T16:42:47;10.00;68.20
49253;DHT22;35103;47.952;-1.502;2022-11-21T16:45:12;9.90;67.70
49253;DHT22;35103;47.952;-1.502;2022-11-21T16:47:38;9.80;67.60
49253;DHT22;35103;47.952;-1.502;2022-11-21T16:50:04;9.70;67.90
49253;DHT22;35103;47.952;-1.502;2022-11-21T16:52:32;9.70;67.80
49253;DHT22;35103;47.952;-1.502;2022-11-21T16:54:58;9.50;68.00
49253;DHT22;35103;47.952;-1.502;2022-11-21T16:57:24;9.40;68.00
49253;DHT22;35103;47.952;-1.502;2022-11-21T16:59:49;9.30;68.30
49253;DHT22;35103;47.952;-1.502;2022-11-21T17:02:15;9.30;68.50
49253;DHT22;35103;47.952;-1.502;2022-11-21T17:04:40;9.30;68.70
49253;DHT22;35103;47.952;-1.502;2022-11-21T17:07:06;9.20;69.10
49253;DHT22;35103;47.952;-1.502;2022-11-21T17:09:31;9.10;69.20
49253;DHT22;35103;47.952;-1.502;2022-11-21T17:11:58;9.10;69.50
49253;DHT22;35103;47.952;-1.502;2022-11-21T17:14:23;9.00;69.70
49253;DHT22;35103;47.952;-1.502;2022-11-21T17:16:49;9.00;69.90
49253;DHT22;35103;47.952;-1.502;2022-11-21T17:19:14;8.90;70.20
49253;DHT22;35103;47.952;-1.502;2022-11-21T17:21:40;8.90;70.20
49253;DHT22;35103;47.952;-1.502;2022-11-21T17:24:06;8.80;70.60